Ana Sayfa
METAR-TAF:

METAR-TAF

Havaalanları :

Akra, Gana

Enlem: 05-36N, Boylam: 000-10W, yükseklik: 68 m

Güncel hava durumu gözlemi

Rapor saat 08:00 UTC de 52 dakika önce yapıldı.
Rüzgar batı/güneybatıdan 9 kt
Sıcaklık 26°C
Nem 84%
Basınç 1014 hPa
Görüş mesafesi 10 km veya daha fazla
1300 ft yükseklikte az bulutlu

METAR: DGAA 230800Z 25009KT 9999 FEW013 26/23 Q1014 NOSIG

Saat: 08:52 (08:52 UTC)

Tahmin

Rapor saat 05:04 UTC de 3 saat ve 48 dakika önce yapıldı.
Ayın 23'si saat 06 UTC'den ayın 24'si saat 12 UTC'ye kadar geçerli Tahmin
Rüzgar batıdan 8 kt
Görüş mesafesi 10 km veya daha fazla
1600 ft yükseklikte parçalı çok bulutlu

TAF: DGAA 230504Z 2306/2412 26008KT 9999 BKN016

4.000'den fazla havaalanı için hava durumu gözlemleri ve tahminleri (METAR ve TAF raporları).

Kullanılabilir istasyonlar harita üzerinde sarı ve kırmızı noktalarla gösterilir.

İstasyonun adını görmek için fareyi noktanın üzerinde gezdirin.

Sonrasında hava gözlem ve tahminlerini görmek için tıklayın.

Haritayı değiştirmek için: yaklaştırmak için siyah artı işaretli yeşil düğmeye ve uzaklaştırmak için de eksi işaretli düğmeye hızla tıklayın; bitişik haritalar için yeşil okları kullanın.


METAR-TAF: